Time;durP1;ratioP1;P1;durP2;ratioP2;P2;SDS_P1;SDS_P2;PMS_P1;PMS_P2;Temp;Humidity;BMP_temperature;BMP_pressure;BME280_temperature;BME280_humidity;BME280_pressure;Samples;Min_cycle;Max_cycle;Signal;HPM_P1;HPM_P2
2023/05/05 04:19:39;;;;;;;7.00;2.50;;;9.80;99.90;;;;;;5482431;23;20801;-86
2023/05/05 04:22:06;;;;;;;7.37;3.40;;;9.90;99.90;;;;;;5000688;28;20223;-85
2023/05/05 04:24:33;;;;;;;5.27;2.70;;;9.90;99.90;;;;;;4999488;28;20200;-85
2023/05/05 04:27:00;;;;;;;6.67;2.53;;;9.90;99.90;;;;;;4997168;28;20221;-86
2023/05/05 04:29:26;;;;;;;4.77;2.37;;;10.00;99.90;;;;;;4994549;28;20525;-85
2023/05/05 04:31:53;;;;;;;5.13;2.60;;;10.00;99.90;;;;;;4996952;28;20217;-86
2023/05/05 04:34:20;;;;;;;6.23;2.80;;;10.10;99.90;;;;;;4996230;28;20194;-85
2023/05/05 04:36:48;;;;;;;6.13;2.60;;;10.10;99.90;;;;;;4998960;28;20725;-85
2023/05/05 04:39:15;;;;;;;5.00;2.60;;;10.20;99.90;;;;;;4999024;28;20286;-85
2023/05/05 04:41:42;;;;;;;4.23;2.50;;;10.20;99.90;;;;;;4998718;28;20206;-85
2023/05/05 04:44:09;;;;;;;7.40;2.87;;;10.30;99.90;;;;;;4998357;28;20200;-86
2023/05/05 04:46:35;;;;;;;4.70;2.30;;;10.40;99.90;;;;;;4993834;28;20192;-85
2023/05/05 04:49:04;;;;;;;4.93;2.60;;;10.50;99.90;;;;;;5006147;28;20189;-85
2023/05/05 04:51:31;;;;;;;5.03;2.40;;;10.60;99.90;;;;;;4998597;28;20214;-85
2023/05/05 04:54:00;;;;;;;5.60;2.63;;;10.70;99.90;;;;;;4998741;28;20199;-85
2023/05/05 04:56:26;;;;;;;5.60;2.60;;;10.80;99.90;;;;;;4998626;28;20243;-85
2023/05/05 04:58:53;;;;;;;4.73;2.73;;;10.80;99.90;;;;;;4995644;28;20229;-85
2023/05/05 05:01:20;;;;;;;7.57;2.90;;;11.00;99.90;;;;;;4995137;28;20193;-85
2023/05/05 05:03:47;;;;;;;5.43;2.80;;;11.10;99.90;;;;;;4996477;28;20219;-85
2023/05/05 05:06:14;;;;;;;6.10;2.40;;;11.20;99.90;;;;;;4998235;28;20218;-85
2023/05/05 05:08:40;;;;;;;6.97;2.43;;;11.30;99.90;;;;;;4998200;28;20199;-84
2023/05/05 05:11:09;;;;;;;5.17;2.63;;;11.30;99.90;;;;;;4997300;28;20282;-86
2023/05/05 05:13:36;;;;;;;7.33;2.73;;;11.40;99.90;;;;;;4978162;28;20744;-85
2023/05/05 05:16:02;;;;;;;8.97;2.60;;;11.40;99.90;;;;;;4995603;28;20559;-84
2023/05/05 05:18:29;;;;;;;5.80;2.40;;;11.50;99.90;;;;;;4997894;28;20705;-85
2023/05/05 05:20:56;;;;;;;7.37;2.70;;;11.50;99.90;;;;;;4995615;28;20204;-86
2023/05/05 05:23:23;;;;;;;4.47;2.60;;;11.50;99.90;;;;;;4992616;28;20755;-85
2023/05/05 05:25:50;;;;;;;4.30;2.60;;;11.60;99.90;;;;;;4995020;28;20206;-86
2023/05/05 05:28:18;;;;;;;8.23;2.40;;;11.60;99.90;;;;;;4995792;28;20200;-87
2023/05/05 05:30:44;;;;;;;3.57;2.10;;;11.60;99.90;;;;;;4997957;28;20657;-86
2023/05/05 05:33:11;;;;;;;6.17;3.00;;;11.60;99.90;;;;;;4996946;28;20669;-86
2023/05/05 05:35:38;;;;;;;7.30;2.40;;;11.70;99.90;;;;;;4997785;28;20191;-87
2023/05/05 05:38:05;;;;;;;6.60;2.40;;;11.70;99.90;;;;;;4997164;28;20674;-86
2023/05/05 05:40:32;;;;;;;7.60;2.60;;;11.70;99.90;;;;;;4993880;28;20685;-86
2023/05/05 05:42:58;;;;;;;6.57;2.20;;;11.80;99.90;;;;;;4997861;28;20692;-87
2023/05/05 05:45:27;;;;;;;6.40;2.40;;;11.90;99.90;;;;;;4997380;28;20213;-86
2023/05/05 05:47:53;;;;;;;7.07;2.17;;;11.90;99.90;;;;;;4997600;28;20196;-86
2023/05/05 05:50:20;;;;;;;12.53;2.40;;;11.90;99.90;;;;;;4997555;28;20206;-86
2023/05/05 05:52:47;;;;;;;4.43;2.20;;;12.00;99.90;;;;;;4993309;28;20194;-86
2023/05/05 05:55:14;;;;;;;5.37;2.20;;;12.10;99.90;;;;;;5008918;28;20196;-86
2023/05/05 05:57:41;;;;;;;8.83;3.17;;;12.20;99.90;;;;;;4997702;28;20203;-86
2023/05/05 06:00:09;;;;;;;6.97;2.53;;;12.30;99.90;;;;;;4997103;28;20782;-86
2023/05/05 06:02:37;;;;;;;5.23;2.40;;;12.30;99.90;;;;;;5000352;28;20218;-86
2023/05/05 06:05:04;;;;;;;4.63;1.83;;;12.50;99.90;;;;;;5008737;28;20213;-86
2023/05/05 06:07:30;;;;;;;7.37;2.43;;;12.60;99.90;;;;;;4993491;28;20666;-86
2023/05/05 06:09:57;;;;;;;5.37;2.80;;;12.70;99.90;;;;;;4997718;28;20195;-87
2023/05/05 06:12:24;;;;;;;6.90;2.33;;;12.90;99.90;;;;;;4997269;28;20199;-86
2023/05/05 06:14:51;;;;;;;4.80;2.50;;;12.90;99.90;;;;;;4997202;28;20200;-86
2023/05/05 06:17:18;;;;;;;4.43;2.27;;;13.00;99.90;;;;;;4997280;28;20196;-86
2023/05/05 06:19:46;;;;;;;4.20;2.20;;;13.10;99.90;;;;;;4993905;28;20223;-87
2023/05/05 06:22:12;;;;;;;6.90;2.30;;;13.20;99.90;;;;;;4996077;28;20199;-86
2023/05/05 06:24:39;;;;;;;5.20;2.00;;;13.30;99.90;;;;;;4997609;28;20202;-87
2023/05/05 06:27:06;;;;;;;9.83;2.53;;;13.30;99.90;;;;;;4997107;28;20203;-87
2023/05/05 06:29:33;;;;;;;4.37;2.20;;;13.50;99.90;;;;;;5000118;28;20196;-86
2023/05/05 06:32:00;;;;;;;4.30;2.30;;;13.50;99.90;;;;;;5008190;28;20200;-86
2023/05/05 06:34:27;;;;;;;3.57;2.00;;;13.50;99.90;;;;;;4997282;28;20213;-86
2023/05/05 06:36:55;;;;;;;9.53;2.33;;;13.60;99.90;;;;;;5001574;28;20192;-86
2023/05/05 06:39:22;;;;;;;6.50;2.50;;;13.60;99.90;;;;;;5006264;28;20579;-86
2023/05/05 06:41:49;;;;;;;4.23;2.20;;;13.70;99.90;;;;;;5006910;28;20680;-86
2023/05/05 06:44:15;;;;;;;6.80;2.33;;;13.70;99.90;;;;;;5000693;28;20217;-86
2023/05/05 06:46:42;;;;;;;5.43;2.20;;;13.80;99.90;;;;;;4997130;28;20205;-87
2023/05/05 06:49:09;;;;;;;5.63;2.10;;;14.00;99.90;;;;;;5000277;28;20197;-86
2023/05/05 06:51:36;;;;;;;5.27;2.20;;;14.10;99.90;;;;;;5000659;28;20196;-87
2023/05/05 06:54:04;;;;;;;7.83;2.37;;;14.20;99.90;;;;;;5000721;28;20197;-87
2023/05/05 06:56:31;;;;;;;7.10;1.97;;;14.30;99.90;;;;;;5000677;28;20613;-87
2023/05/05 06:58:58;;;;;;;4.53;2.40;;;14.40;99.90;;;;;;4996429;28;20573;-86
2023/05/05 07:01:25;;;;;;;3.53;2.07;;;14.30;99.90;;;;;;5012115;28;20548;-87
2023/05/05 07:03:52;;;;;;;5.63;2.63;;;14.40;99.90;;;;;;5000978;28;20244;-86
2023/05/05 07:06:19;;;;;;;5.23;2.47;;;14.40;99.90;;;;;;5000519;28;20303;-87
2023/05/05 07:08:46;;;;;;;4.00;2.30;;;14.40;99.90;;;;;;5000873;28;20200;-86
2023/05/05 07:11:14;;;;;;;5.27;2.33;;;14.50;99.90;;;;;;5011127;28;20197;-86
2023/05/05 07:13:41;;;;;;;4.27;2.53;;;14.50;99.90;;;;;;4996224;28;20287;-86
2023/05/05 07:16:08;;;;;;;3.27;1.97;;;14.60;99.90;;;;;;5000277;28;20205;-86
2023/05/05 07:18:35;;;;;;;5.27;2.37;;;14.80;99.90;;;;;;5000259;28;20201;-87
2023/05/05 07:21:01;;;;;;;4.90;2.70;;;15.00;99.90;;;;;;5002511;28;20659;-87
2023/05/05 07:23:28;;;;;;;5.17;2.40;;;15.30;99.90;;;;;;5008631;28;20213;-87
2023/05/05 07:25:55;;;;;;;4.87;2.07;;;15.50;99.90;;;;;;4995922;28;20211;-87
2023/05/05 07:28:23;;;;;;;3.90;2.40;;;15.50;99.90;;;;;;5011807;28;20203;-87
2023/05/05 07:30:50;;;;;;;5.50;2.22;;;15.50;99.90;;;;;;5003366;28;20201;-87
2023/05/05 07:33:18;;;;;;;5.22;2.28;;;15.50;99.90;;;;;;5011250;28;20203;-87
2023/05/05 07:35:45;;;;;;;6.45;2.50;;;15.60;99.90;;;;;;5006724;28;20259;-87
2023/05/05 07:38:11;;;;;;;5.10;2.45;;;15.60;99.90;;;;;;5000386;28;20204;-87
2023/05/05 07:40:38;;;;;;;12.88;2.50;;;15.60;99.90;;;;;;4995577;28;20223;-87
2023/05/05 07:43:05;;;;;;;7.82;2.80;;;15.60;99.90;;;;;;5006810;28;20225;-87
2023/05/05 07:45:33;;;;;;;4.63;2.80;;;15.50;99.90;;;;;;4999684;28;20212;-86
2023/05/05 07:48:00;;;;;;;4.68;2.55;;;15.40;99.90;;;;;;4999842;28;20197;-87
2023/05/05 07:50:27;;;;;;;3.83;2.30;;;15.20;99.90;;;;;;4999852;28;20211;-87
2023/05/05 07:52:53;;;;;;;3.80;2.23;;;15.10;99.90;;;;;;4997292;28;20206;-87
2023/05/05 07:55:20;;;;;;;3.85;2.60;;;15.00;99.90;;;;;;5013387;28;20205;-86
2023/05/05 07:57:48;;;;;;;4.22;2.58;;;15.00;99.90;;;;;;4999879;28;20207;-86
2023/05/05 08:00:18;;;;;;;4.30;2.30;;;15.00;99.90;;;;;;4999486;28;20665;-87
2023/05/05 08:02:46;;;;;;;4.87;2.80;;;15.20;99.90;;;;;;4999629;28;20204;-87
2023/05/05 08:05:13;;;;;;;5.03;2.60;;;15.40;99.90;;;;;;4999642;28;20196;-86
2023/05/05 08:07:40;;;;;;;4.55;2.53;;;15.60;99.90;;;;;;4995268;28;20660;-87
2023/05/05 08:10:09;;;;;;;8.63;2.45;;;15.80;99.90;;;;;;5006856;28;20204;-87
2023/05/05 08:12:36;;;;;;;6.82;2.55;;;15.90;99.90;;;;;;4999339;28;20197;-86
2023/05/05 08:15:02;;;;;;;3.85;2.20;;;15.80;99.90;;;;;;4999306;28;20867;-87
2023/05/05 08:17:29;;;;;;;4.93;2.70;;;15.80;99.90;;;;;;4997230;28;20199;-87
2023/05/05 08:19:57;;;;;;;7.55;2.97;;;15.80;99.90;;;;;;5010584;28;20309;-86
2023/05/05 08:22:25;;;;;;;7.05;2.83;;;15.80;99.90;;;;;;4996747;28;20198;-87
2023/05/05 08:24:51;;;;;;;7.07;2.90;;;15.80;99.90;;;;;;4999221;28;20218;-87
2023/05/05 08:27:18;;;;;;;4.05;2.47;;;15.90;99.90;;;;;;4999121;28;20201;-87
2023/05/05 08:29:45;;;;;;;5.18;3.00;;;16.00;99.90;;;;;;4999017;28;20206;-87
2023/05/05 08:32:12;;;;;;;6.93;2.60;;;16.20;99.90;;;;;;4999124;28;20201;-87
2023/05/05 08:34:38;;;;;;;4.40;2.67;;;16.50;99.90;;;;;;4979280;28;20201;-87
2023/05/05 08:37:07;;;;;;;5.38;2.90;;;16.80;99.90;;;;;;4999192;28;20191;-87
2023/05/05 08:39:33;;;;;;;4.43;2.80;;;17.00;99.90;;;;;;4998703;28;20203;-88
2023/05/05 08:42:01;;;;;;;5.70;2.83;;;17.20;99.90;;;;;;5001046;28;20207;-87
2023/05/05 08:44:28;;;;;;;3.78;2.40;;;17.10;99.90;;;;;;5007831;28;20220;-87
2023/05/05 08:46:55;;;;;;;4.35;2.75;;;17.10;99.90;;;;;;4996083;28;20191;-87
2023/05/05 08:49:22;;;;;;;5.40;2.85;;;17.10;99.90;;;;;;4996706;28;20205;-87
2023/05/05 08:51:52;;;;;;;4.45;2.60;;;17.10;99.90;;;;;;5012122;28;20202;-87
2023/05/05 08:54:24;;;;;;;4.88;2.78;;;17.10;99.90;;;;;;5005326;28;20198;-87
2023/05/05 08:56:51;;;;;;;9.80;2.90;;;17.20;99.90;;;;;;5003566;28;20198;-87
2023/05/05 08:59:23;;;;;;;4.97;2.65;;;17.20;99.90;;;;;;4999108;28;20194;-86
2023/05/05 09:01:51;;;;;;;5.30;2.47;;;17.20;99.90;;;;;;5009879;28;20576;-87
2023/05/05 09:04:18;;;;;;;5.07;2.60;;;17.00;99.90;;;;;;5012677;28;20249;-86
2023/05/05 09:06:45;;;;;;;6.50;3.30;;;16.90;99.90;;;;;;4998812;28;20203;-87
2023/05/05 09:09:13;;;;;;;4.82;2.70;;;16.80;99.90;;;;;;4998047;28;20199;-87
2023/05/05 09:11:42;;;;;;;5.05;2.78;;;16.80;99.90;;;;;;4998333;28;20199;-87
2023/05/05 09:14:09;;;;;;;6.65;2.72;;;16.90;99.90;;;;;;4997540;28;20653;-87
2023/05/05 09:16:39;;;;;;;4.70;2.67;;;17.10;99.90;;;;;;4994271;28;20191;-87
2023/05/05 09:19:06;;;;;;;5.25;2.80;;;17.20;99.90;;;;;;4998746;28;20233;-87
2023/05/05 09:21:33;;;;;;;11.20;2.90;;;17.40;99.90;;;;;;4997976;28;20212;-87
2023/05/05 09:24:08;;;;;;;6.95;2.75;;;17.50;99.90;;;;;;4997859;28;20749;-87
2023/05/05 09:26:37;;;;;;;10.02;3.00;;;17.60;99.90;;;;;;4998151;28;20591;-87
2023/05/05 09:29:06;;;;;;;4.50;2.78;;;17.80;99.90;;;;;;4996538;28;20567;-88
2023/05/05 09:31:33;;;;;;;4.97;2.83;;;17.80;99.90;;;;;;4994543;28;20685;-87
2023/05/05 09:34:02;;;;;;;9.75;3.10;;;17.70;99.90;;;;;;4998241;28;20684;-87
2023/05/05 09:36:42;;;;;;;12.88;3.03;;;17.80;99.90;;;;;;4997541;28;20863;-87
2023/05/05 09:39:09;;;;;;;4.43;2.97;;;17.70;99.90;;;;;;4997671;28;20253;-87
2023/05/05 09:41:41;;;;;;;4.68;2.60;;;17.70;99.90;;;;;;4997934;28;20200;-87
2023/05/05 09:44:09;;;;;;;4.43;2.90;;;17.60;99.90;;;;;;4996890;28;20567;-88
2023/05/05 09:46:36;;;;;;;5.60;3.03;;;17.60;99.90;;;;;;5010198;28;20209;-87
2023/05/05 09:49:14;;;;;;;5.03;2.67;;;17.70;99.90;;;;;;4998035;28;20205;-87
2023/05/05 09:51:41;;;;;;;3.45;2.38;;;17.80;99.90;;;;;;4997677;28;20214;-87
2023/05/05 09:54:08;;;;;;;6.28;2.90;;;17.90;99.90;;;;;;4997793;28;20232;-87
2023/05/05 09:56:39;;;;;;;5.15;2.65;;;17.90;99.90;;;;;;5000577;28;20205;-87
2023/05/05 09:59:10;;;;;;;5.63;2.80;;;18.00;99.90;;;;;;5008566;28;20194;-87
2023/05/05 10:01:38;;;;;;;5.30;2.80;;;18.00;99.90;;;;;;4993533;28;20835;-87
2023/05/05 10:04:05;;;;;;;4.45;2.70;;;18.00;99.90;;;;;;4997762;28;20218;-88
2023/05/05 10:06:45;;;;;;;7.30;2.90;;;17.90;99.90;;;;;;4997007;28;20734;-87
2023/05/05 10:09:12;;;;;;;4.97;2.55;;;17.90;99.90;;;;;;5005467;28;20199;-87
2023/05/05 10:11:41;;;;;;;5.15;3.00;;;18.00;99.90;;;;;;5004827;28;20202;-87
2023/05/05 10:14:08;;;;;;;5.88;2.55;;;18.10;99.90;;;;;;4996363;28;20191;-87
2023/05/05 10:16:38;;;;;;;8.93;2.90;;;18.10;99.90;;;;;;4993588;28;20199;-87
2023/05/05 10:19:06;;;;;;;5.00;2.80;;;18.10;99.90;;;;;;4997583;28;20230;-87
2023/05/05 10:21:34;;;;;;;4.40;2.70;;;18.30;99.90;;;;;;4997149;28;20198;-87
2023/05/05 10:24:08;;;;;;;5.32;2.60;;;18.50;99.90;;;;;;4997126;28;20281;-88
2023/05/05 10:26:41;;;;;;;8.18;2.58;;;18.60;99.90;;;;;;4995809;28;20666;-88
2023/05/05 10:29:16;;;;;;;5.25;2.65;;;18.90;99.90;;;;;;5004904;28;20624;-87
2023/05/05 10:31:47;;;;;;;6.32;2.85;;;19.10;99.90;;;;;;4977314;28;20198;-86
2023/05/05 10:34:21;;;;;;;4.60;2.72;;;19.10;99.90;;;;;;4996361;28;20567;-86
2023/05/05 10:36:49;;;;;;;5.97;2.90;;;19.00;99.90;;;;;;4997039;28;20198;-87
2023/05/05 10:39:18;;;;;;;5.60;2.83;;;18.80;99.90;;;;;;4997233;28;20203;-88
2023/05/05 10:41:46;;;;;;;8.27;3.17;;;18.80;99.90;;;;;;4996981;28;20207;-87
2023/05/05 10:44:15;;;;;;;9.35;3.20;;;18.80;99.90;;;;;;4996730;28;20210;-87
2023/05/05 10:46:43;;;;;;;4.63;3.03;;;18.70;99.90;;;;;;4977608;28;20203;-88
2023/05/05 10:49:24;;;;;;;3.95;2.33;;;18.60;99.90;;;;;;5004309;28;20201;-88
2023/05/05 10:51:57;;;;;;;4.70;2.88;;;18.50;99.90;;;;;;5005777;28;20721;-88
2023/05/05 10:54:32;;;;;;;4.90;2.63;;;18.40;99.90;;;;;;4999096;28;20214;-87
2023/05/05 10:57:03;;;;;;;10.73;3.10;;;18.20;99.90;;;;;;5002973;28;20701;-88
2023/05/05 10:59:40;;;;;;;3.78;2.70;;;18.10;99.90;;;;;;5005958;28;20682;-88
2023/05/05 11:02:19;;;;;;;4.28;2.45;;;17.90;99.90;;;;;;4995692;28;20576;-87
2023/05/05 11:05:03;;;;;;;4.30;2.75;;;17.80;99.90;;;;;;4977495;28;20210;-87
2023/05/05 11:07:32;;;;;;;5.00;2.70;;;17.80;99.90;;;;;;4993933;28;20195;-88
2023/05/05 11:10:01;;;;;;;6.15;2.92;;;17.80;99.90;;;;;;4997557;28;20199;-88
2023/05/05 11:12:28;;;;;;;5.15;2.65;;;17.80;99.90;;;;;;4996902;28;20203;-88
2023/05/05 11:15:36;;;;;;;6.35;2.90;;;17.80;99.90;;;;;;4996830;28;20269;-88
2023/05/05 11:18:04;;;;;;;5.60;2.72;;;17.80;99.90;;;;;;4996570;28;20195;-88
2023/05/05 11:21:06;;;;;;;7.13;2.50;;;17.80;99.90;;;;;;5000115;28;20226;-88
2023/05/05 11:23:33;;;;;;;4.55;2.50;;;17.90;99.90;;;;;;5000540;28;20198;-88
2023/05/05 11:25:59;;;;;;;6.18;3.08;;;18.00;99.90;;;;;;4998281;28;20211;-87
2023/05/05 11:28:29;;;;;;;5.97;2.92;;;18.00;99.90;;;;;;4997898;28;20195;-88
2023/05/05 11:31:15;;;;;;;5.47;3.00;;;17.90;99.90;;;;;;4999254;28;20285;-88
2023/05/05 11:33:42;;;;;;;6.22;3.00;;;17.90;99.90;;;;;;4999771;28;20655;-87
2023/05/05 11:36:11;;;;;;;4.78;2.60;;;18.10;99.90;;;;;;5000059;28;20587;-88
2023/05/05 11:38:47;;;;;;;4.63;2.65;;;18.20;99.90;;;;;;5003229;28;20197;-88
2023/05/05 11:41:23;;;;;;;4.63;2.50;;;18.30;99.90;;;;;;5011331;28;20200;-88
2023/05/05 11:43:50;;;;;;;7.03;2.30;;;18.50;99.90;;;;;;4982033;28;20667;-88
2023/05/05 11:46:17;;;;;;;5.07;2.70;;;18.80;99.90;;;;;;4999117;28;20197;-87
2023/05/05 11:48:44;;;;;;;4.72;2.38;;;18.90;99.90;;;;;;4999901;28;20217;-88
2023/05/05 11:51:13;;;;;;;5.68;2.70;;;18.80;99.90;;;;;;5003051;28;20202;-88
2023/05/05 11:53:42;;;;;;;9.05;2.60;;;18.80;99.90;;;;;;5007888;28;20199;-87
2023/05/05 11:56:10;;;;;;;4.15;2.35;;;18.90;99.90;;;;;;4998624;28;20194;-88
2023/05/05 11:58:37;;;;;;;6.57;2.88;;;18.90;99.90;;;;;;4996239;28;20202;-87
2023/05/05 12:01:05;;;;;;;8.15;2.88;;;18.80;99.90;;;;;;5000339;28;20640;-88
2023/05/05 12:03:35;;;;;;;4.43;2.72;;;18.80;99.90;;;;;;4999693;28;20221;-88
2023/05/05 12:06:02;;;;;;;6.50;2.50;;;18.80;99.90;;;;;;4999506;28;20628;-87
2023/05/05 12:08:35;;;;;;;5.63;2.65;;;18.90;99.90;;;;;;4999637;28;20566;-88
2023/05/05 12:11:03;;;;;;;5.28;2.55;;;19.10;99.90;;;;;;4997896;28;20201;-88
2023/05/05 12:13:30;;;;;;;3.55;2.60;;;19.40;99.90;;;;;;4997023;28;20190;-89
2023/05/05 12:15:56;;;;;;;6.28;2.63;;;19.60;99.90;;;;;;4999580;28;20218;-88
2023/05/05 12:18:23;;;;;;;4.60;2.60;;;19.60;99.90;;;;;;4999108;28;20203;-88
2023/05/05 12:20:51;;;;;;;7.32;2.80;;;19.50;99.90;;;;;;4999293;28;20199;-88
2023/05/05 12:23:19;;;;;;;4.45;2.53;;;19.40;99.90;;;;;;4999269;28;20712;-88
2023/05/05 12:25:47;;;;;;;6.45;2.55;;;19.30;99.90;;;;;;4994887;28;20217;-87
2023/05/05 12:28:14;;;;;;;5.07;2.42;;;19.10;99.90;;;;;;4999287;28;20201;-88
2023/05/05 12:30:40;;;;;;;5.22;2.25;;;18.90;99.90;;;;;;5010056;28;20205;-88
2023/05/05 12:33:08;;;;;;;6.70;3.13;;;18.80;99.90;;;;;;5003472;28;20662;-88
2023/05/05 12:35:35;;;;;;;5.93;2.95;;;18.70;99.90;;;;;;4999093;28;20298;-88
2023/05/05 12:38:02;;;;;;;6.60;2.75;;;18.70;99.90;;;;;;4997043;28;20196;-88
2023/05/05 12:40:47;;;;;;;4.03;2.60;;;18.80;99.90;;;;;;4996358;28;20199;-88
2023/05/05 12:43:30;;;;;;;5.03;2.50;;;18.80;99.90;;;;;;4995089;28;20303;-89
2023/05/05 12:46:02;;;;;;;6.10;2.67;;;18.80;99.90;;;;;;5010561;28;20231;-87
2023/05/05 12:48:28;;;;;;;8.50;2.47;;;18.70;99.90;;;;;;5000175;28;20203;-88
2023/05/05 12:51:09;;;;;;;5.85;2.30;;;18.60;99.90;;;;;;4998690;28;20202;-88
2023/05/05 12:53:36;;;;;;;5.40;2.47;;;18.40;99.90;;;;;;4998481;28;20225;-86
2023/05/05 12:56:04;;;;;;;3.50;2.78;;;18.40;99.90;;;;;;4996742;28;20195;-87
2023/05/05 12:58:47;;;;;;;5.18;2.70;;;18.60;99.90;;;;;;4995890;28;20677;-88
2023/05/05 13:01:13;;;;;;;7.22;2.50;;;18.70;99.90;;;;;;5006526;28;20190;-88
2023/05/05 13:03:40;;;;;;;3.88;2.42;;;18.90;99.90;;;;;;4997281;28;20199;-88
2023/05/05 13:06:19;;;;;;;5.32;2.47;;;19.20;99.90;;;;;;4998359;28;20211;-88
2023/05/05 13:08:46;;;;;;;8.30;2.97;;;19.60;99.90;;;;;;4998390;28;20249;-88
2023/05/05 13:11:14;;;;;;;4.00;2.70;;;19.70;99.90;;;;;;4994223;28;20197;-87
2023/05/05 13:13:41;;;;;;;3.97;2.50;;;19.80;99.90;;;;;;5009691;28;20206;-87
2023/05/05 13:16:08;;;;;;;5.47;2.65;;;19.90;99.90;;;;;;4998874;28;20199;-88
2023/05/05 13:18:43;;;;;;;3.67;2.50;;;19.80;99.90;;;;;;5003940;28;20205;-87
2023/05/05 13:21:10;;;;;;;4.00;2.75;;;19.80;99.90;;;;;;5002510;28;20199;-89
2023/05/05 13:23:37;;;;;;;9.15;2.67;;;19.70;99.90;;;;;;4998175;28;20228;-87
2023/05/05 13:26:04;;;;;;;4.32;2.30;;;19.70;99.90;;;;;;4996265;28;20230;-88
2023/05/05 13:28:33;;;;;;;4.68;2.45;;;19.60;99.90;;;;;;4995420;28;20199;-88
2023/05/05 13:31:00;;;;;;;5.15;2.63;;;19.60;99.90;;;;;;4994568;28;20576;-87
2023/05/05 13:33:27;;;;;;;6.00;2.70;;;19.50;99.90;;;;;;4997891;28;20206;-87
2023/05/05 13:35:53;;;;;;;4.45;2.45;;;19.30;99.90;;;;;;5002863;28;20198;-88
2023/05/05 13:38:20;;;;;;;7.22;2.47;;;19.00;99.90;;;;;;5009965;28;20197;-88
2023/05/05 13:40:47;;;;;;;5.75;2.47;;;18.80;99.90;;;;;;4993807;28;20709;-88
2023/05/05 13:43:14;;;;;;;8.60;2.70;;;18.80;99.90;;;;;;4997432;28;20651;-88
2023/05/05 13:45:42;;;;;;;4.90;2.70;;;18.80;99.90;;;;;;4997753;28;20248;-88
2023/05/05 13:48:09;;;;;;;4.68;2.60;;;19.00;99.90;;;;;;4997934;28;20217;-88
2023/05/05 13:50:36;;;;;;;5.75;2.38;;;19.30;99.90;;;;;;5000160;28;20195;-88
2023/05/05 13:53:03;;;;;;;5.85;2.42;;;19.80;99.90;;;;;;5006606;28;20201;-89
2023/05/05 13:55:30;;;;;;;5.03;2.25;;;20.10;99.90;;;;;;4993315;28;20663;-88
2023/05/05 13:57:57;;;;;;;5.63;2.60;;;20.20;99.90;;;;;;4995832;28;20191;-88
2023/05/05 14:00:24;;;;;;;7.07;2.60;;;20.20;99.90;;;;;;4997375;28;20199;-88
2023/05/05 14:02:52;;;;;;;4.28;2.50;;;20.20;99.90;;;;;;4997472;28;20206;-88
2023/05/05 14:05:19;;;;;;;6.32;2.83;;;20.10;99.90;;;;;;5008873;28;20483;-88
2023/05/05 14:07:46;;;;;;;5.93;2.53;;;20.10;99.90;;;;;;4977795;28;20195;-88
2023/05/05 14:10:13;;;;;;;3.15;2.05;;;19.90;99.90;;;;;;5004781;28;20198;-89
2023/05/05 14:12:40;;;;;;;10.27;2.80;;;19.80;99.90;;;;;;5008336;28;20577;-87
2023/05/05 14:15:08;;;;;;;5.70;2.50;;;19.70;99.90;;;;;;5008652;28;20198;-88
2023/05/05 14:17:34;;;;;;;5.60;2.53;;;19.60;99.90;;;;;;5006055;28;20205;-88
2023/05/05 14:20:03;;;;;;;5.25;2.58;;;19.60;99.90;;;;;;4994601;28;20285;-88
2023/05/05 14:22:30;;;;;;;7.65;2.40;;;19.60;99.90;;;;;;4994957;28;20259;-89
2023/05/05 14:24:57;;;;;;;4.40;2.63;;;19.60;99.90;;;;;;5010845;28;20194;-88
2023/05/05 14:27:24;;;;;;;4.97;2.85;;;19.50;99.90;;;;;;5000291;28;20202;-88
2023/05/05 14:29:50;;;;;;;5.88;2.78;;;19.40;99.90;;;;;;4992818;28;20201;-89
2023/05/05 14:32:17;;;;;;;5.22;2.60;;;19.40;99.90;;;;;;4997104;28;20198;-88
2023/05/05 14:34:44;;;;;;;6.30;2.50;;;19.30;99.90;;;;;;4991405;28;20199;-88
2023/05/05 14:37:12;;;;;;;6.40;2.60;;;19.20;99.90;;;;;;5013020;28;20201;-87
2023/05/05 14:39:39;;;;;;;4.97;2.75;;;18.90;99.90;;;;;;4997265;28;20701;-88
2023/05/05 14:42:06;;;;;;;6.50;2.70;;;18.70;99.90;;;;;;4996842;28;20282;-89
2023/05/05 14:44:33;;;;;;;7.28;2.88;;;18.50;99.90;;;;;;4999085;28;20201;-88
2023/05/05 14:46:59;;;;;;;5.28;2.40;;;18.50;99.90;;;;;;5008109;28;20229;-88
2023/05/05 14:49:26;;;;;;;4.40;2.60;;;18.50;99.90;;;;;;4995420;28;20187;-87
2023/05/05 14:51:53;;;;;;;5.07;2.80;;;18.50;99.90;;;;;;4997092;28;20198;-88
2023/05/05 14:54:21;;;;;;;4.95;2.58;;;18.50;99.90;;;;;;4998421;28;20205;-87
2023/05/05 14:56:48;;;;;;;5.30;2.42;;;18.50;99.90;;;;;;4995806;28;20201;-88
2023/05/05 14:59:15;;;;;;;4.47;2.67;;;18.60;99.90;;;;;;4994712;28;20203;-88
2023/05/05 15:01:41;;;;;;;5.65;2.50;;;18.60;99.90;;;;;;5003298;28;20201;-88
2023/05/05 15:04:08;;;;;;;4.15;2.50;;;18.70;99.90;;;;;;4997017;28;20655;-88
2023/05/05 15:06:35;;;;;;;6.45;2.47;;;18.90;99.90;;;;;;5001099;28;20221;-89
2023/05/05 15:09:02;;;;;;;5.35;2.70;;;19.00;99.90;;;;;;5000604;28;20198;-88
2023/05/05 15:11:30;;;;;;;6.25;2.75;;;19.10;99.90;;;;;;5000003;28;20201;-88
2023/05/05 15:13:57;;;;;;;4.60;2.90;;;19.10;99.90;;;;;;4997552;28;20195;-88
2023/05/05 15:16:24;;;;;;;6.15;2.60;;;19.00;99.90;;;;;;4998723;28;20187;-87
2023/05/05 15:18:51;;;;;;;5.68;2.90;;;18.90;99.90;;;;;;5013121;28;20218;-88
2023/05/05 15:21:17;;;;;;;6.80;2.80;;;18.70;99.90;;;;;;5002408;28;20209;-88
2023/05/05 15:23:44;;;;;;;4.03;2.60;;;18.50;99.90;;;;;;5000375;28;20199;-88
2023/05/05 15:26:11;;;;;;;7.10;2.97;;;18.40;99.90;;;;;;4997312;28;20210;-87
2023/05/05 15:28:40;;;;;;;5.40;2.72;;;18.30;99.90;;;;;;4986532;28;20219;-88
2023/05/05 15:31:06;;;;;;;5.88;3.10;;;18.20;99.90;;;;;;4996854;28;20681;-88
2023/05/05 15:33:33;;;;;;;5.13;3.25;;;18.20;99.90;;;;;;4993782;28;20207;-87
2023/05/05 15:36:00;;;;;;;6.30;3.50;;;18.30;99.90;;;;;;4995290;28;20194;-88
2023/05/05 15:38:28;;;;;;;6.65;3.40;;;18.20;99.90;;;;;;4995483;28;20195;-89
2023/05/05 15:40:54;;;;;;;6.50;3.17;;;18.30;99.90;;;;;;4996208;28;20191;-88
2023/05/05 15:43:21;;;;;;;7.80;2.95;;;18.20;99.90;;;;;;4999244;28;20667;-87
2023/05/05 15:45:49;;;;;;;5.18;3.08;;;18.20;99.90;;;;;;5011919;28;20212;-88
2023/05/05 15:48:16;;;;;;;4.60;2.72;;;18.10;99.90;;;;;;5003297;28;20191;-89
2023/05/05 15:50:43;;;;;;;5.80;3.08;;;18.00;99.90;;;;;;4999962;28;20217;-88
2023/05/05 15:53:10;;;;;;;6.25;3.03;;;18.00;99.90;;;;;;4998390;28;20202;-89
2023/05/05 15:55:37;;;;;;;4.40;3.17;;;18.10;99.90;;;;;;4996631;28;20195;-88
2023/05/05 15:58:04;;;;;;;4.75;2.75;;;18.10;99.90;;;;;;5000026;28;20198;-89
2023/05/05 16:00:31;;;;;;;7.60;3.03;;;18.00;99.90;;;;;;4999548;28;20199;-88
2023/05/05 16:02:59;;;;;;;4.22;2.90;;;18.00;99.90;;;;;;4999542;28;20201;-88
2023/05/05 16:05:26;;;;;;;7.00;3.22;;;18.00;99.90;;;;;;4995427;28;20258;-88
2023/05/05 16:07:53;;;;;;;5.88;3.13;;;18.00;99.90;;;;;;5010746;28;20196;-89
2023/05/05 16:10:20;;;;;;;6.18;3.05;;;18.00;99.90;;;;;;5002020;28;20659;-87
2023/05/05 16:12:46;;;;;;;5.78;2.70;;;18.00;99.90;;;;;;5007869;28;20567;-88
2023/05/05 16:15:13;;;;;;;6.55;2.83;;;18.10;99.90;;;;;;5001128;28;20195;-88
2023/05/05 16:17:40;;;;;;;7.82;3.00;;;18.10;99.90;;;;;;4995343;28;20200;-88
2023/05/05 16:20:10;;;;;;;5.07;3.17;;;18.00;99.90;;;;;;4997352;28;20215;-88
2023/05/05 16:22:36;;;;;;;5.72;3.40;;;17.90;99.90;;;;;;4994961;28;20198;-88
2023/05/05 16:25:03;;;;;;;7.45;2.88;;;17.80;99.90;;;;;;4998520;28;20203;-88
2023/05/05 16:27:30;;;;;;;7.63;3.17;;;17.60;99.90;;;;;;4999141;28;20215;-88
2023/05/05 16:29:57;;;;;;;5.00;2.80;;;17.50;99.90;;;;;;4999487;28;20191;-88
2023/05/05 16:32:24;;;;;;;4.10;3.05;;;17.40;99.90;;;;;;4998580;28;20198;-88
2023/05/05 16:34:50;;;;;;;6.50;3.25;;;17.40;99.90;;;;;;4995116;28;20195;-87
2023/05/05 16:37:19;;;;;;;4.55;2.63;;;17.20;99.90;;;;;;5014722;28;20198;-87
2023/05/05 16:39:45;;;;;;;7.22;3.40;;;17.10;99.90;;;;;;4998758;28;20191;-88
2023/05/05 16:42:12;;;;;;;5.43;3.20;;;16.90;99.90;;;;;;4998885;28;20194;-87
2023/05/05 16:44:40;;;;;;;9.85;3.00;;;16.90;99.90;;;;;;4993519;28;20196;-89
2023/05/05 16:47:06;;;;;;;7.13;2.92;;;16.80;99.90;;;;;;4994230;28;20713;-89
2023/05/05 16:49:33;;;;;;;5.55;3.10;;;16.70;99.90;;;;;;4995864;28;20209;-89
2023/05/05 16:52:00;;;;;;;5.85;3.30;;;16.70;99.90;;;;;;5008730;28;20202;-88
2023/05/05 16:54:28;;;;;;;5.35;3.20;;;16.60;99.90;;;;;;5008338;28;20529;-89
2023/05/05 16:56:55;;;;;;;7.15;3.05;;;16.40;99.90;;;;;;5010669;28;20209;-88
2023/05/05 16:59:22;;;;;;;5.13;3.20;;;16.30;99.90;;;;;;4998725;28;20199;-89
2023/05/05 17:01:48;;;;;;;7.75;2.95;;;16.30;99.90;;;;;;4988769;28;20209;-90
2023/05/05 17:04:15;;;;;;;7.05;3.28;;;16.20;99.90;;;;;;4975661;28;20194;-87
2023/05/05 17:06:42;;;;;;;5.85;3.00;;;16.10;99.90;;;;;;5005064;28;20240;-87
2023/05/05 17:09:09;;;;;;;8.80;3.28;;;16.00;99.90;;;;;;5002444;28;20215;-88